createdAt,value
2019-03-29T00:01:51.521Z,54.45
2019-03-29T00:04:23.031Z,54.45
2019-03-29T00:06:53.422Z,53.93
2019-03-29T00:09:23.614Z,54.12
2019-03-29T00:11:56.062Z,54.40
2019-03-29T00:14:26.244Z,53.82
2019-03-29T00:16:56.441Z,53.82
2019-03-29T00:19:27.813Z,53.56
2019-03-29T00:22:01.971Z,53.06
2019-03-29T00:24:32.213Z,53.22
2019-03-29T00:27:04.060Z,52.84
2019-03-29T00:29:34.174Z,53.01
2019-03-29T00:32:06.081Z,53.63
2019-03-29T00:34:36.395Z,53.63
2019-03-29T00:37:06.638Z,53.31
2019-03-29T00:39:38.096Z,53.49
2019-03-29T00:42:08.279Z,53.49
2019-03-29T00:44:39.859Z,52.83
2019-03-29T00:47:11.714Z,53.09
2019-03-29T00:49:41.976Z,53.09
2019-03-29T00:52:13.020Z,53.21
2019-03-29T00:54:43.173Z,52.92
2019-03-29T00:57:15.961Z,52.92
2019-03-29T00:59:47.231Z,52.68
2019-03-29T01:02:18.933Z,52.81
2019-03-29T01:04:51.329Z,52.81
2019-03-29T01:07:24.842Z,52.91
2019-03-29T01:09:55.031Z,53.23
2019-03-29T01:12:26.931Z,52.97
2019-03-29T01:14:57.152Z,53.38
2019-03-29T01:17:29.373Z,53.68
2019-03-29T01:20:00.570Z,53.68
2019-03-29T01:22:31.331Z,54.11
2019-03-29T01:25:04.760Z,54.04
2019-03-29T01:27:38.772Z,54.04
2019-03-29T01:30:09.287Z,53.64
2019-03-29T01:32:40.542Z,53.55
2019-03-29T01:35:13.253Z,53.90
2019-03-29T01:37:43.386Z,53.90
2019-03-29T01:40:14.907Z,53.67
2019-03-29T01:42:45.291Z,53.15
2019-03-29T01:45:15.615Z,52.76
2019-03-29T01:47:45.805Z,52.76
2019-03-29T01:50:16.048Z,53.70
2019-03-29T01:52:46.220Z,53.70
2019-03-29T01:55:16.437Z,54.25
2019-03-29T01:57:46.660Z,53.98
2019-03-29T02:00:23.524Z,54.19
2019-03-29T02:02:53.682Z,54.46
2019-03-29T02:05:27.784Z,54.33
2019-03-29T02:07:58.132Z,54.33
2019-03-29T02:10:28.362Z,53.99
2019-03-29T02:12:59.209Z,54.07
2019-03-29T02:15:31.737Z,54.41
2019-03-29T02:18:04.167Z,54.62
2019-03-29T02:20:34.318Z,54.88
2019-03-29T02:23:05.522Z,54.88
2019-03-29T02:25:36.683Z,54.35
2019-03-29T02:28:08.095Z,54.07
2019-03-29T02:30:38.351Z,53.72
2019-03-29T02:33:09.596Z,53.72
2019-03-29T02:35:41.337Z,53.60
2019-03-29T02:38:13.803Z,52.38
2019-03-29T02:40:45.845Z,52.38
2019-03-29T02:43:15.929Z,53.25
2019-03-29T02:45:46.167Z,53.13
2019-03-29T02:48:16.991Z,52.97
2019-03-29T02:50:49.858Z,54.55
2019-03-29T02:53:20.065Z,54.55
2019-03-29T02:55:53.046Z,55.24
2019-03-29T02:58:23.188Z,55.64
2019-03-29T03:00:55.814Z,55.48
2019-03-29T03:03:29.893Z,55.40
2019-03-29T03:06:06.775Z,55.11
2019-03-29T03:08:36.921Z,55.11
2019-03-29T03:11:07.184Z,55.46
2019-03-29T03:13:38.673Z,55.46
2019-03-29T03:16:14.209Z,55.26
2019-03-29T03:18:44.457Z,55.74
2019-03-29T03:21:14.784Z,55.99
2019-03-29T03:23:44.978Z,56.13
2019-03-29T03:26:17.320Z,56.45
2019-03-29T03:28:47.356Z,56.29
2019-03-29T03:31:17.557Z,56.12
2019-03-29T03:33:47.830Z,56.31
2019-03-29T03:36:18.177Z,55.84
2019-03-29T03:38:49.605Z,55.74
2019-03-29T03:41:19.838Z,56.44
2019-03-29T03:43:51.513Z,56.63
2019-03-29T03:46:21.783Z,57.21
2019-03-29T03:48:51.923Z,57.51
2019-03-29T03:51:22.354Z,57.82
2019-03-29T03:53:54.145Z,57.61
2019-03-29T03:56:25.832Z,57.73
2019-03-29T03:58:56.348Z,57.48
2019-03-29T04:01:28.367Z,57.01
2019-03-29T04:03:58.588Z,56.98
2019-03-29T04:06:33.092Z,57.04
2019-03-29T04:09:05.514Z,57.43
2019-03-29T04:11:37.180Z,57.67
2019-03-29T04:14:11.072Z,57.31
2019-03-29T04:16:42.963Z,57.13
2019-03-29T04:19:16.713Z,56.67
2019-03-29T04:21:46.847Z,57.34
2019-03-29T04:24:18.071Z,57.14
2019-03-29T04:26:53.125Z,56.38
2019-03-29T04:29:23.321Z,56.20
2019-03-29T04:31:54.755Z,56.93
2019-03-29T04:34:27.017Z,57.44
2019-03-29T04:36:57.214Z,56.91
2019-03-29T04:39:27.414Z,56.34
2019-03-29T04:41:59.431Z,56.10
2019-03-29T04:44:31.783Z,55.49
2019-03-29T04:47:03.663Z,55.52
2019-03-29T04:49:35.296Z,55.36
2019-03-29T04:52:05.335Z,55.49
2019-03-29T04:54:35.470Z,55.14
2019-03-29T04:57:05.733Z,55.72
2019-03-29T04:59:36.905Z,55.87
2019-03-29T05:02:09.965Z,55.53
2019-03-29T05:04:41.117Z,54.56
2019-03-29T05:07:13.146Z,54.14
2019-03-29T05:09:45.520Z,53.99
2019-03-29T05:12:15.698Z,53.75
2019-03-29T05:14:49.008Z,53.64
2019-03-29T05:17:19.147Z,53.64
2019-03-29T05:19:49.185Z,54.23
2019-03-29T05:22:21.423Z,53.37
2019-03-29T05:24:51.650Z,53.95
2019-03-29T05:27:23.844Z,54.73
2019-03-29T05:29:53.926Z,54.73
2019-03-29T05:32:25.530Z,55.03
2019-03-29T05:34:55.618Z,53.82
2019-03-29T05:37:25.849Z,53.49
2019-03-29T05:39:56.112Z,53.49
2019-03-29T05:42:27.378Z,54.40
2019-03-29T05:44:58.804Z,54.40
2019-03-29T05:47:31.396Z,53.58
2019-03-29T05:50:04.110Z,52.79
2019-03-29T05:52:34.362Z,51.90
2019-03-29T05:55:06.404Z,51.19
2019-03-29T05:57:36.719Z,51.19
2019-03-29T06:00:07.759Z,50.73
2019-03-29T06:02:46.685Z,49.72
2019-03-29T06:05:20.240Z,48.97
2019-03-29T06:07:51.583Z,48.00
2019-03-29T06:10:22.779Z,46.02
2019-03-29T06:12:55.361Z,46.51
2019-03-29T06:15:25.702Z,44.32
2019-03-29T06:17:55.885Z,44.31
2019-03-29T06:20:26.018Z,43.88
2019-03-29T06:22:57.614Z,40.42
2019-03-29T06:25:28.956Z,40.02
2019-03-29T06:28:02.453Z,39.41
2019-03-29T06:30:35.732Z,39.41
2019-03-29T06:33:05.862Z,39.18
2019-03-29T06:35:39.943Z,37.53
2019-03-29T06:38:11.282Z,36.16
2019-03-29T06:40:41.485Z,34.47
2019-03-29T06:43:11.691Z,33.29
2019-03-29T06:45:47.764Z,30.90
2019-03-29T06:48:17.024Z,29.04
2019-03-29T06:50:47.442Z,26.45
2019-03-29T06:53:21.123Z,23.48
2019-03-29T06:55:52.577Z,21.88
2019-03-29T06:58:22.755Z,20.23
2019-03-29T07:00:52.929Z,18.89
2019-03-29T07:03:23.117Z,17.83
2019-03-29T07:05:58.143Z,17.38
2019-03-29T07:08:28.854Z,16.96
2019-03-29T07:11:16.185Z,15.52
2019-03-29T07:13:38.765Z,14.30
2019-03-29T07:16:09.325Z,13.83
2019-03-29T07:18:41.772Z,13.79
2019-03-29T07:21:21.515Z,12.49
2019-03-29T07:23:45.533Z,12.02
2019-03-29T07:26:15.732Z,11.04
2019-03-29T07:28:46.016Z,11.00
2019-03-29T07:31:16.256Z,10.80
2019-03-29T07:33:47.515Z,10.92
2019-03-29T07:36:21.538Z,9.71
2019-03-29T07:38:52.996Z,10.95
2019-03-29T07:41:32.155Z,10.78
2019-03-29T07:43:59.106Z,9.58
2019-03-29T07:46:29.433Z,8.38
2019-03-29T07:48:59.603Z,9.50
2019-03-29T07:51:29.825Z,8.47
2019-03-29T07:54:04.286Z,8.85
2019-03-29T07:56:34.208Z,7.04
2019-03-29T07:59:04.485Z,7.08
2019-03-29T08:01:36.151Z,7.85
2019-03-29T08:04:08.904Z,7.60
2019-03-29T08:06:39.200Z,7.21
2019-03-29T08:09:21.590Z,7.25
2019-03-29T08:11:46.552Z,6.53
2019-03-29T08:14:15.094Z,5.66
2019-03-29T08:16:47.234Z,6.41
2019-03-29T08:19:18.480Z,6.27
2019-03-29T08:21:50.094Z,6.12
2019-03-29T08:24:21.736Z,5.85
2019-03-29T08:26:53.621Z,6.21
2019-03-29T08:29:27.118Z,6.06
2019-03-29T08:31:58.111Z,6.40
2019-03-29T08:34:30.389Z,6.82
2019-03-29T08:37:02.783Z,6.69
2019-03-29T08:39:33.576Z,6.21
2019-03-29T08:42:11.321Z,6.61
2019-03-29T08:44:41.602Z,6.59
2019-03-29T08:47:13.274Z,6.26
2019-03-29T08:49:43.670Z,5.39
2019-03-29T08:52:15.467Z,5.56
2019-03-29T08:54:51.001Z,6.76
2019-03-29T08:57:23.226Z,5.75
2019-03-29T08:59:50.393Z,5.76
2019-03-29T09:02:20.814Z,6.67
2019-03-29T09:04:53.217Z,6.26
2019-03-29T09:07:27.951Z,5.91
2019-03-29T09:10:00.431Z,5.66
2019-03-29T09:12:32.450Z,5.70
2019-03-29T09:15:03.910Z,6.06
2019-03-29T09:17:37.533Z,5.88
2019-03-29T09:20:10.419Z,6.65
2019-03-29T09:22:39.309Z,6.92
2019-03-29T09:25:14.203Z,6.95
2019-03-29T09:27:44.343Z,7.91
2019-03-29T09:30:18.135Z,8.34
2019-03-29T09:32:51.465Z,7.53
2019-03-29T09:35:23.650Z,7.23
2019-03-29T09:37:56.390Z,7.98
2019-03-29T09:40:32.541Z,7.01
2019-03-29T09:43:09.836Z,7.43
2019-03-29T09:45:34.506Z,7.29
2019-03-29T09:48:04.692Z,6.99
2019-03-29T09:50:34.766Z,6.84
2019-03-29T09:53:05.026Z,7.62
2019-03-29T09:55:35.195Z,7.85
2019-03-29T09:58:08.770Z,7.52
2019-03-29T10:00:41.964Z,7.56
2019-03-29T10:03:12.153Z,7.95
2019-03-29T10:05:42.126Z,7.04
2019-03-29T10:08:12.313Z,6.97
2019-03-29T10:10:43.762Z,6.41
2019-03-29T10:13:13.864Z,5.63
2019-03-29T10:15:46.322Z,6.34
2019-03-29T10:18:17.720Z,6.97
2019-03-29T10:20:47.930Z,7.08
2019-03-29T10:23:19.423Z,6.95
2019-03-29T10:25:51.359Z,7.01
2019-03-29T10:28:23.784Z,7.34
2019-03-29T10:30:56.218Z,7.00
2019-03-29T10:33:26.561Z,7.61
2019-03-29T10:35:56.759Z,7.36
2019-03-29T10:38:28.191Z,6.78
2019-03-29T10:40:59.599Z,6.65
2019-03-29T10:43:29.674Z,7.40
2019-03-29T10:45:59.836Z,7.16
2019-03-29T10:48:30.141Z,6.70
2019-03-29T10:51:00.274Z,6.82
2019-03-29T10:53:30.483Z,6.51
2019-03-29T10:56:00.833Z,6.03
2019-03-29T10:58:30.988Z,6.81
2019-03-29T11:01:01.249Z,7.17
2019-03-29T11:03:31.669Z,7.12
2019-03-29T11:06:01.818Z,7.10
2019-03-29T11:08:32.092Z,6.99
2019-03-29T11:11:02.320Z,8.04
2019-03-29T11:13:32.452Z,6.99
2019-03-29T11:16:02.551Z,6.81
2019-03-29T11:18:32.770Z,7.49
2019-03-29T11:21:02.958Z,7.73
2019-03-29T11:23:35.285Z,7.37
2019-03-29T11:26:05.518Z,7.93
2019-03-29T11:28:36.843Z,8.51
2019-03-29T11:31:07.129Z,8.58
2019-03-29T11:33:38.594Z,9.66
2019-03-29T11:36:10.423Z,10.10
2019-03-29T11:38:40.583Z,11.43
2019-03-29T11:41:12.785Z,13.09
2019-03-29T11:43:42.918Z,14.78
2019-03-29T11:46:14.070Z,16.08
2019-03-29T11:48:44.229Z,16.65
2019-03-29T11:51:19.785Z,17.98
2019-03-29T11:53:52.854Z,17.92
2019-03-29T11:56:24.251Z,18.78
2019-03-29T11:58:54.472Z,20.56
2019-03-29T12:01:24.634Z,19.27
2019-03-29T12:03:55.877Z,21.90
2019-03-29T12:06:26.006Z,21.07
2019-03-29T12:08:57.193Z,20.02
2019-03-29T12:11:27.607Z,21.02
2019-03-29T12:13:57.786Z,21.04
2019-03-29T12:16:28.008Z,20.51
2019-03-29T12:18:59.478Z,20.81
2019-03-29T12:21:31.140Z,21.49
2019-03-29T12:24:02.287Z,21.17
2019-03-29T12:26:33.514Z,21.66
2019-03-29T12:29:04.791Z,21.85
2019-03-29T12:31:36.354Z,22.04
2019-03-29T12:34:06.445Z,22.94
2019-03-29T12:36:38.232Z,22.22
2019-03-29T12:39:08.962Z,22.36
2019-03-29T12:41:42.002Z,22.85
2019-03-29T12:44:12.153Z,22.47
2019-03-29T12:46:42.253Z,23.19
2019-03-29T12:49:13.632Z,22.20
2019-03-29T12:51:46.437Z,22.67
2019-03-29T12:54:18.042Z,22.53
2019-03-29T12:56:48.126Z,23.58
2019-03-29T12:59:18.323Z,23.52
2019-03-29T13:01:48.615Z,23.74
2019-03-29T13:04:18.821Z,23.86
2019-03-29T13:06:49.018Z,23.66
2019-03-29T13:09:19.269Z,23.89
2019-03-29T13:11:50.867Z,23.04
2019-03-29T13:14:22.561Z,23.14
2019-03-29T13:16:52.737Z,24.41
2019-03-29T13:19:23.007Z,23.39
2019-03-29T13:21:53.191Z,23.63
2019-03-29T13:24:23.649Z,23.81
2019-03-29T13:26:55.356Z,23.93
2019-03-29T13:29:29.588Z,23.66
2019-03-29T13:32:00.819Z,23.55
2019-03-29T13:34:31.001Z,23.97
2019-03-29T13:37:02.261Z,24.58
2019-03-29T13:39:34.885Z,23.81
2019-03-29T13:42:05.091Z,24.36
2019-03-29T13:44:36.676Z,24.76
2019-03-29T13:47:06.847Z,24.25
2019-03-29T13:49:38.343Z,24.58
2019-03-29T13:52:08.596Z,24.56
2019-03-29T13:54:38.735Z,24.62
2019-03-29T13:57:08.924Z,24.43
2019-03-29T13:59:39.074Z,24.88
2019-03-29T14:02:09.259Z,24.85
2019-03-29T14:04:40.870Z,25.08
2019-03-29T14:07:10.982Z,25.02
2019-03-29T14:09:41.157Z,24.61
2019-03-29T14:12:13.824Z,25.14
2019-03-29T14:14:43.987Z,24.91
2019-03-29T14:17:14.112Z,24.70
2019-03-29T14:19:44.301Z,25.20
2019-03-29T14:22:14.350Z,25.60
2019-03-29T14:24:46.524Z,24.95
2019-03-29T14:27:16.821Z,25.29
2019-03-29T14:29:47.899Z,24.94
2019-03-29T14:32:22.444Z,25.43
2019-03-29T14:34:53.574Z,25.38
2019-03-29T14:37:24.600Z,25.24
2019-03-29T14:39:56.078Z,25.91
2019-03-29T14:42:30.889Z,25.14
2019-03-29T14:45:02.869Z,25.22
2019-03-29T14:47:41.392Z,25.60
2019-03-29T14:50:05.430Z,25.50
2019-03-29T14:52:35.760Z,25.55
2019-03-29T14:55:06.567Z,25.30
2019-03-29T14:57:36.912Z,25.77
2019-03-29T15:00:09.818Z,25.66
2019-03-29T15:02:40.239Z,25.98
2019-03-29T15:05:11.100Z,25.73
2019-03-29T15:07:42.729Z,25.92
2019-03-29T15:10:35.424Z,25.98
2019-03-29T15:13:09.839Z,25.78
2019-03-29T15:15:40.119Z,26.00
2019-03-29T15:18:10.297Z,26.32
2019-03-29T15:20:53.313Z,26.09
2019-03-29T15:23:18.718Z,26.56
2019-03-29T15:25:50.723Z,26.55
2019-03-29T15:28:20.988Z,26.90
2019-03-29T15:30:52.548Z,26.35
2019-03-29T15:33:22.955Z,26.37
2019-03-29T15:35:53.206Z,26.75
2019-03-29T15:38:23.385Z,27.12
2019-03-29T15:40:56.919Z,27.07
2019-03-29T15:43:26.958Z,26.83
2019-03-29T15:45:57.360Z,27.54
2019-03-29T15:48:32.165Z,27.52
2019-03-29T15:51:02.277Z,27.39
2019-03-29T15:53:33.428Z,27.70
2019-03-29T15:56:04.616Z,28.27
2019-03-29T15:58:34.693Z,29.04
2019-03-29T16:01:04.954Z,28.69
2019-03-29T16:03:38.155Z,28.21
2019-03-29T16:06:11.302Z,28.72
2019-03-29T16:08:42.669Z,29.42
2019-03-29T16:11:16.986Z,29.02
2019-03-29T16:13:48.702Z,29.24
2019-03-29T16:16:18.883Z,29.35
2019-03-29T16:18:50.449Z,29.50
2019-03-29T16:21:20.606Z,30.10
2019-03-29T16:23:50.803Z,30.21
2019-03-29T16:26:20.938Z,30.43
2019-03-29T16:28:51.129Z,30.71
2019-03-29T16:31:21.266Z,31.10
2019-03-29T16:33:52.683Z,31.28
2019-03-29T16:36:22.744Z,31.37
2019-03-29T16:38:53.040Z,31.87
2019-03-29T16:41:23.303Z,31.99
2019-03-29T16:43:53.837Z,32.63
2019-03-29T16:46:23.994Z,32.49
2019-03-29T16:48:54.041Z,32.97
2019-03-29T16:51:24.245Z,32.52
2019-03-29T16:53:54.766Z,32.39
2019-03-29T16:56:25.040Z,32.45
2019-03-29T16:58:55.085Z,32.78
2019-03-29T17:01:25.341Z,32.93
2019-03-29T17:03:59.250Z,33.16
2019-03-29T17:06:29.411Z,33.50
2019-03-29T17:08:59.660Z,33.78
2019-03-29T17:11:29.847Z,34.06
2019-03-29T17:14:00.020Z,34.47
2019-03-29T17:16:30.911Z,34.78
2019-03-29T17:19:01.224Z,34.98
2019-03-29T17:21:31.511Z,35.12
2019-03-29T17:24:01.823Z,35.22
2019-03-29T17:26:32.039Z,35.72
2019-03-29T17:29:02.231Z,36.03
2019-03-29T17:31:32.361Z,35.88
2019-03-29T17:34:02.463Z,36.32
2019-03-29T17:36:34.789Z,36.48
2019-03-29T17:39:06.132Z,37.04
2019-03-29T17:41:36.278Z,37.04
2019-03-29T17:44:08.512Z,37.25
2019-03-29T17:46:38.254Z,37.77
2019-03-29T17:49:08.426Z,37.81
2019-03-29T17:51:38.523Z,38.59
2019-03-29T17:54:08.724Z,38.13
2019-03-29T17:56:39.045Z,37.94
2019-03-29T17:59:09.327Z,37.61
2019-03-29T18:01:39.593Z,38.06
2019-03-29T18:04:14.010Z,37.79
2019-03-29T18:06:46.862Z,38.26
2019-03-29T18:09:16.027Z,38.40
2019-03-29T18:11:47.504Z,38.43
2019-03-29T18:14:17.631Z,38.89
2019-03-29T18:16:47.841Z,38.95
2019-03-29T18:19:18.223Z,38.94
2019-03-29T18:21:49.426Z,39.33
2019-03-29T18:24:19.599Z,39.45
2019-03-29T18:26:49.700Z,39.09
2019-03-29T18:29:19.867Z,39.37
2019-03-29T18:31:50.074Z,39.40
2019-03-29T18:34:20.357Z,39.45
2019-03-29T18:36:50.939Z,39.42
2019-03-29T18:39:22.430Z,39.23
2019-03-29T18:41:52.443Z,39.20
2019-03-29T18:44:22.537Z,39.37
2019-03-29T18:46:52.883Z,39.71
2019-03-29T18:49:23.031Z,40.26
2019-03-29T18:51:53.155Z,40.17
2019-03-29T18:54:23.525Z,40.23
2019-03-29T18:56:53.774Z,40.47
2019-03-29T18:59:23.929Z,40.17
2019-03-29T19:01:54.092Z,39.97
2019-03-29T19:04:34.038Z,39.93
2019-03-29T19:07:05.466Z,39.01
2019-03-29T19:09:35.466Z,38.94
2019-03-29T19:12:05.759Z,39.25
2019-03-29T19:14:35.907Z,40.01
2019-03-29T19:17:06.152Z,40.03
2019-03-29T19:19:36.420Z,40.71
2019-03-29T19:22:06.697Z,41.28
2019-03-29T19:24:36.850Z,41.28
2019-03-29T19:27:06.921Z,40.84
2019-03-29T19:29:37.279Z,41.00
2019-03-29T19:32:07.460Z,41.73
2019-03-29T19:34:40.983Z,40.93
2019-03-29T19:37:11.257Z,40.93
2019-03-29T19:39:43.581Z,40.79
2019-03-29T19:42:16.621Z,43.13
2019-03-29T19:44:45.754Z,43.13
2019-03-29T19:47:16.016Z,41.74
2019-03-29T19:49:46.241Z,43.04
2019-03-29T19:52:19.019Z,43.54
2019-03-29T19:54:52.751Z,43.54
2019-03-29T19:57:22.931Z,43.84
2019-03-29T19:59:54.531Z,44.78
2019-03-29T20:02:24.616Z,44.78
2019-03-29T20:04:54.832Z,44.94
2019-03-29T20:07:25.024Z,45.12
2019-03-29T20:09:55.215Z,45.12
2019-03-29T20:12:25.448Z,45.12
2019-03-29T20:14:57.684Z,44.87
2019-03-29T20:17:28.057Z,44.98
2019-03-29T20:19:58.451Z,44.98
2019-03-29T20:22:28.720Z,44.86
2019-03-29T20:25:00.377Z,45.07
2019-03-29T20:27:30.674Z,45.36
2019-03-29T20:30:00.865Z,45.59
2019-03-29T20:32:31.004Z,45.64
2019-03-29T20:35:01.180Z,45.93
2019-03-29T20:37:31.326Z,46.42
2019-03-29T20:40:01.545Z,46.00
2019-03-29T20:42:31.749Z,46.61
2019-03-29T20:45:01.988Z,47.43
2019-03-29T20:47:42.039Z,48.12
2019-03-29T20:50:04.113Z,48.34
2019-03-29T20:52:34.147Z,48.17
2019-03-29T20:55:04.677Z,48.48
2019-03-29T20:57:34.920Z,48.87
2019-03-29T21:00:05.969Z,48.99
2019-03-29T21:02:36.260Z,49.00
2019-03-29T21:05:07.188Z,49.30
2019-03-29T21:07:37.560Z,48.98
2019-03-29T21:10:08.158Z,49.29
2019-03-29T21:12:38.440Z,49.10
2019-03-29T21:15:09.302Z,48.49
2019-03-29T21:17:55.491Z,48.49
2019-03-29T21:20:15.208Z,49.14
2019-03-29T21:22:45.450Z,49.61
2019-03-29T21:25:15.828Z,48.93
2019-03-29T21:27:46.038Z,48.64
2019-03-29T21:30:16.779Z,49.08
2019-03-29T21:32:46.966Z,48.54
2019-03-29T21:35:19.670Z,49.07
2019-03-29T21:37:49.834Z,49.23
2019-03-29T21:40:20.204Z,48.86
2019-03-29T21:42:51.573Z,49.17
2019-03-29T21:45:29.001Z,48.75
2019-03-29T21:48:02.304Z,48.17
2019-03-29T21:50:29.148Z,48.65
2019-03-29T21:53:00.625Z,48.68
2019-03-29T21:55:30.682Z,48.91
2019-03-29T21:58:01.824Z,48.98
2019-03-29T22:00:34.468Z,49.65
2019-03-29T22:03:07.534Z,49.44
2019-03-29T22:05:37.710Z,49.69
2019-03-29T22:08:07.889Z,49.56
2019-03-29T22:10:38.136Z,50.20
2019-03-29T22:13:08.324Z,50.08
2019-03-29T22:15:38.522Z,49.52
2019-03-29T22:18:08.753Z,49.44
2019-03-29T22:20:39.988Z,49.76
2019-03-29T22:23:12.426Z,49.80
2019-03-29T22:25:42.560Z,49.31
2019-03-29T22:28:15.252Z,48.90
2019-03-29T22:30:47.358Z,49.93
2019-03-29T22:33:17.413Z,50.27
2019-03-29T22:35:49.172Z,50.41
2019-03-29T22:38:19.373Z,50.38
2019-03-29T22:40:49.443Z,50.61
2019-03-29T22:43:20.852Z,50.96
2019-03-29T22:45:53.705Z,50.58
2019-03-29T22:48:26.069Z,49.97
2019-03-29T22:50:56.117Z,49.87
2019-03-29T22:53:30.302Z,49.75
2019-03-29T22:56:00.611Z,49.49
2019-03-29T22:58:33.036Z,50.12
2019-03-29T23:01:04.327Z,49.83
2019-03-29T23:03:36.807Z,49.22
2019-03-29T23:06:11.820Z,48.62
2019-03-29T23:08:46.088Z,48.70
2019-03-29T23:11:16.153Z,48.59
2019-03-29T23:13:49.208Z,48.38
2019-03-29T23:16:20.823Z,48.57
2019-03-29T23:18:51.023Z,47.83
2019-03-29T23:21:21.097Z,48.02
2019-03-29T23:23:51.405Z,47.67
2019-03-29T23:26:21.548Z,47.76
2019-03-29T23:28:51.769Z,47.75
2019-03-29T23:31:23.286Z,48.11
2019-03-29T23:33:54.879Z,47.92
2019-03-29T23:36:27.941Z,48.11
2019-03-29T23:38:58.294Z,48.07
2019-03-29T23:41:30.569Z,48.45
2019-03-29T23:44:00.312Z,48.42
2019-03-29T23:46:30.553Z,47.94
2019-03-29T23:49:00.738Z,48.82
2019-03-29T23:51:30.933Z,48.99
2019-03-29T23:54:01.049Z,49.68
2019-03-29T23:56:31.309Z,49.13
2019-03-29T23:59:01.544Z,49.31
